Kirkland, Illinois
Current Conditions -  °F | °C
As of 5:15 PM on Wednesday 17 Dec 2014 (Local Time) from KDKB Reporting Station
Overcast Overcast  
Wind Chill: 13°   Ceiling: 1900
Heat Index: 22°   Visibility: 10mi
Dew Point: 16°   Wind: 8mph
Humidity: 78%   Direction: 290°WNW
Pressure: 30.26"   Gusts: NA
Location:  42.09°N, 88.85°W
Report Text: KDKB 172315Z AUTO 29007KT 10SM OVC019 M05/M09 A3026 RMK AO2 T10551088
Loading
Personal Weather Stations






























Interactive Weather Map New forecast layout! Learn more

10-Day Weather Forecast

Advertisements
Track Severe Weather on mobile